Cleveland, Ohio
Traffic Map
Current Weather Conditions
Cleveland, Ohio
Overcast
Overcast

Feels Like: 4°
Wind Chill: Ceiling: 3000
Heat Index: Visibility: 10mi
Dew Point: Wind: 6mph
Humidity: 92% Direction: ° ()
Pressure: 30.15in Gusts: 0mph
Raw Report DataKCLE 301251Z VRB05KT 10SM SCT025 OVC030 06/05 A3015 RMK AO2 RAE04 SLP212 T00560044 PNO $
Traffic Incident Summary
Active as of:
Severity:
Category:
InformationThere was an issue retrieving the traffic information for this location. Please try a different location or try again shortly.
Advertisements
Track Severe Weather on mobile